Time;durP1;ratioP1;P1;durP2;ratioP2;P2;SDS_P1;SDS_P2;PMS_P1;PMS_P2;Temp;Humidity;BMP_temperature;BMP_pressure;BME280_temperature;BME280_humidity;BME280_pressure;Samples;Min_cycle;Max_cycle;Signal;HPM_P1;HPM_P2
2022/03/02 00:00:12;;;;;;;43.00;32.85;;;7.80;76.60;;;;;;4967151;28;20042;-81
2022/03/02 00:02:37;;;;;;;43.80;33.40;;;7.90;76.60;;;;;;4976385;28;20503;-80
2022/03/02 00:05:04;;;;;;;42.60;32.67;;;7.90;76.60;;;;;;4963187;28;20554;-80
2022/03/02 00:07:29;;;;;;;45.63;33.85;;;7.80;76.50;;;;;;4964751;28;20058;-80
2022/03/02 00:09:55;;;;;;;44.85;32.65;;;7.80;76.40;;;;;;4962722;28;20126;-80
2022/03/02 00:12:20;;;;;;;46.08;33.28;;;7.80;76.00;;;;;;4955064;28;20135;-80
2022/03/02 00:14:46;;;;;;;47.15;34.42;;;7.80;75.80;;;;;;4970554;28;20114;-80
2022/03/02 00:17:12;;;;;;;42.70;32.28;;;7.80;75.90;;;;;;4963216;28;20068;-81
2022/03/02 00:19:37;;;;;;;46.38;32.85;;;7.80;76.30;;;;;;4964389;28;20368;-81
2022/03/02 00:22:04;;;;;;;44.85;32.90;;;7.70;76.20;;;;;;4963096;28;20137;-81
2022/03/02 00:24:30;;;;;;;46.70;33.60;;;7.70;76.40;;;;;;4973450;28;20547;-81
2022/03/02 00:26:56;;;;;;;39.95;31.83;;;7.80;76.70;;;;;;4965100;28;20455;-81
2022/03/02 00:29:22;;;;;;;45.92;32.80;;;7.70;77.00;;;;;;4973988;28;20030;-81
2022/03/02 00:31:47;;;;;;;45.42;33.10;;;7.70;77.20;;;;;;4971022;28;20058;-81
2022/03/02 00:34:13;;;;;;;47.75;34.70;;;7.70;76.80;;;;;;4969011;28;20030;-80
2022/03/02 00:36:39;;;;;;;48.95;34.15;;;7.60;77.20;;;;;;4968061;28;20395;-81
2022/03/02 00:39:05;;;;;;;42.53;32.28;;;7.60;77.00;;;;;;4961639;28;20038;-81
2022/03/02 00:41:30;;;;;;;44.60;32.35;;;7.50;75.90;;;;;;4958991;28;20039;-81
2022/03/02 00:43:56;;;;;;;43.78;32.63;;;7.50;75.80;;;;;;4968191;28;20050;-81
2022/03/02 00:46:29;;;;;;;46.75;34.60;;;7.50;75.40;;;;;;4972325;28;20046;-81
2022/03/02 00:49:02;;;;;;;43.72;32.05;;;7.40;75.50;;;;;;4970504;28;20038;-81
2022/03/02 00:51:28;;;;;;;41.10;31.65;;;7.30;75.80;;;;;;4975798;28;20045;-81
2022/03/02 00:53:54;;;;;;;45.30;32.90;;;7.40;75.90;;;;;;4961406;28;20470;-81
2022/03/02 00:56:21;;;;;;;46.95;32.65;;;7.40;76.00;;;;;;4956321;28;20046;-81
2022/03/02 00:58:47;;;;;;;45.97;32.40;;;7.40;76.20;;;;;;4943905;28;20039;-81
2022/03/02 01:01:13;;;;;;;46.13;32.72;;;7.50;76.20;;;;;;4961909;28;20041;-81
2022/03/02 01:03:39;;;;;;;46.05;32.42;;;7.50;76.20;;;;;;4958450;28;20035;-81
2022/03/02 01:06:05;;;;;;;45.40;32.25;;;7.50;76.30;;;;;;4965010;28;20462;-81
2022/03/02 01:08:32;;;;;;;42.75;32.85;;;7.50;76.70;;;;;;4944766;28;20034;-81
2022/03/02 01:10:57;;;;;;;41.35;32.22;;;7.50;76.90;;;;;;4969665;28;20049;-81
2022/03/02 01:13:23;;;;;;;42.95;32.45;;;7.50;77.30;;;;;;4954878;28;20043;-81
2022/03/02 01:15:49;;;;;;;43.33;31.35;;;7.60;77.50;;;;;;4967281;28;20122;-81
2022/03/02 01:18:15;;;;;;;43.15;32.75;;;7.50;77.80;;;;;;4966260;28;20046;-82
2022/03/02 01:20:40;;;;;;;43.75;32.95;;;7.50;78.00;;;;;;4947405;28;20503;-81
2022/03/02 01:23:06;;;;;;;43.20;32.95;;;7.50;78.30;;;;;;4959183;28;20042;-81
2022/03/02 01:25:32;;;;;;;47.78;34.33;;;7.50;78.60;;;;;;4966209;28;20113;-82
2022/03/02 01:27:57;;;;;;;46.38;33.05;;;7.40;77.90;;;;;;4964348;28;20045;-82
2022/03/02 01:30:23;;;;;;;44.30;32.90;;;7.30;77.50;;;;;;4961829;28;20043;-81
2022/03/02 01:32:49;;;;;;;47.83;32.63;;;7.30;77.30;;;;;;4963277;28;20043;-81
2022/03/02 01:35:15;;;;;;;44.75;32.88;;;7.20;76.90;;;;;;4961521;28;20039;-82
2022/03/02 01:37:40;;;;;;;48.13;34.53;;;7.20;77.00;;;;;;4970311;28;20042;-81
2022/03/02 01:40:09;;;;;;;46.15;34.25;;;7.20;77.20;;;;;;4947757;28;20308;-82
2022/03/02 01:42:40;;;;;;;45.92;32.42;;;7.10;77.40;;;;;;4970443;28;20375;-82
2022/03/02 01:45:07;;;;;;;45.50;34.05;;;7.10;77.30;;;;;;4967188;28;20038;-81
2022/03/02 01:47:33;;;;;;;41.60;31.52;;;7.10;77.30;;;;;;4965610;28;20034;-81
2022/03/02 01:50:00;;;;;;;42.20;32.53;;;7.10;77.30;;;;;;4972802;28;20047;-82
2022/03/02 01:52:26;;;;;;;45.15;33.03;;;7.10;77.20;;;;;;4966830;28;20097;-82
2022/03/02 01:54:51;;;;;;;48.22;35.67;;;7.10;77.00;;;;;;4983661;28;20039;-82
2022/03/02 01:57:17;;;;;;;51.70;34.40;;;7.10;76.20;;;;;;4962169;28;20423;-81
2022/03/02 01:59:43;;;;;;;46.67;32.50;;;7.00;75.90;;;;;;4962042;28;20397;-82
2022/03/02 02:02:09;;;;;;;44.85;32.30;;;6.90;75.90;;;;;;4968872;28;20042;-81
2022/03/02 02:04:35;;;;;;;47.45;34.30;;;7.00;76.00;;;;;;4990007;28;20137;-81
2022/03/02 02:07:01;;;;;;;42.92;32.85;;;7.00;75.70;;;;;;4964864;28;20470;-80
2022/03/02 02:09:27;;;;;;;43.55;32.55;;;7.00;75.50;;;;;;4961024;28;20031;-81
2022/03/02 02:11:52;;;;;;;45.25;33.97;;;7.00;75.60;;;;;;4949030;28;20050;-81
2022/03/02 02:14:18;;;;;;;43.95;32.88;;;7.00;75.70;;;;;;4965511;28;20046;-81
2022/03/02 02:16:44;;;;;;;44.63;33.00;;;7.00;75.90;;;;;;4968274;28;20049;-82
2022/03/02 02:19:10;;;;;;;46.90;32.72;;;7.00;76.20;;;;;;4961785;28;20422;-81
2022/03/02 02:21:36;;;;;;;45.58;32.60;;;7.00;76.40;;;;;;4961336;28;20137;-82
2022/03/02 02:24:01;;;;;;;42.38;31.90;;;7.10;76.80;;;;;;4942713;28;20039;-81
2022/03/02 02:26:27;;;;;;;50.53;34.05;;;7.00;77.10;;;;;;4966131;28;20031;-81
2022/03/02 02:28:54;;;;;;;44.97;32.90;;;7.00;77.10;;;;;;4962631;28;20121;-82
2022/03/02 02:31:20;;;;;;;46.28;34.75;;;7.00;77.00;;;;;;4978424;28;20037;-81
2022/03/02 02:33:47;;;;;;;43.00;33.10;;;7.00;77.10;;;;;;4941040;28;20043;-81
2022/03/02 02:36:13;;;;;;;47.78;33.65;;;7.00;77.50;;;;;;4966290;28;20050;-82
2022/03/02 02:38:38;;;;;;;45.55;32.83;;;7.00;77.60;;;;;;4972188;28;20244;-81
2022/03/02 02:41:04;;;;;;;44.72;32.75;;;7.00;77.70;;;;;;4950766;28;20142;-81
2022/03/02 02:43:29;;;;;;;46.22;34.95;;;7.00;78.00;;;;;;4961870;28;20035;-82
2022/03/02 02:45:55;;;;;;;47.70;34.92;;;7.00;78.00;;;;;;4972566;28;20038;-81
2022/03/02 02:48:21;;;;;;;41.47;31.73;;;7.00;77.90;;;;;;4968722;28;20045;-82
2022/03/02 02:50:47;;;;;;;46.67;34.33;;;7.00;77.80;;;;;;4960581;28;20035;-82
2022/03/02 02:53:13;;;;;;;45.28;33.63;;;7.00;77.90;;;;;;4963203;28;20043;-81
2022/03/02 02:55:40;;;;;;;47.00;34.20;;;7.00;77.80;;;;;;4965519;28;20057;-82
2022/03/02 02:58:07;;;;;;;44.90;32.90;;;7.00;77.50;;;;;;4969154;28;20114;-82
2022/03/02 03:00:35;;;;;;;44.42;33.83;;;7.00;77.50;;;;;;4960003;28;20086;-82
2022/03/02 03:03:01;;;;;;;42.38;31.45;;;6.90;77.40;;;;;;4956486;28;20050;-81
2022/03/02 03:05:30;;;;;;;48.42;33.88;;;7.00;77.10;;;;;;4971109;28;20030;-81
2022/03/02 03:07:56;;;;;;;43.95;32.60;;;7.00;77.20;;;;;;4967446;28;20030;-81
2022/03/02 03:10:23;;;;;;;46.88;34.63;;;7.00;76.90;;;;;;4969240;28;20035;-81
2022/03/02 03:12:49;;;;;;;48.75;34.85;;;7.00;77.20;;;;;;4964343;28;20043;-81
2022/03/02 03:15:17;;;;;;;42.47;32.45;;;6.90;77.20;;;;;;4971295;28;20489;-81
2022/03/02 03:17:43;;;;;;;47.97;35.35;;;6.90;77.30;;;;;;4965171;28;21100;-82
2022/03/02 03:20:12;;;;;;;46.03;34.25;;;6.90;77.60;;;;;;4959174;28;20153;-82
2022/03/02 03:22:38;;;;;;;45.38;34.17;;;6.90;77.60;;;;;;4959804;28;20078;-82
2022/03/02 03:25:04;;;;;;;45.67;33.10;;;6.90;77.80;;;;;;4958192;28;20047;-82
2022/03/02 03:27:30;;;;;;;45.40;32.88;;;6.90;78.00;;;;;;4970642;28;20106;-81
2022/03/02 03:29:56;;;;;;;45.88;33.65;;;6.90;78.20;;;;;;4964895;28;20101;-81
2022/03/02 03:32:22;;;;;;;47.42;35.05;;;6.90;78.00;;;;;;4970744;28;20153;-81
2022/03/02 03:34:48;;;;;;;48.03;34.97;;;6.80;77.80;;;;;;4964502;28;20046;-81
2022/03/02 03:37:14;;;;;;;49.38;35.90;;;6.80;77.70;;;;;;4970942;28;20037;-82
2022/03/02 03:39:42;;;;;;;46.58;35.10;;;6.70;77.90;;;;;;4976615;28;20030;-81
2022/03/02 03:42:08;;;;;;;47.20;34.45;;;6.80;78.20;;;;;;4966343;28;20050;-81
2022/03/02 03:44:34;;;;;;;44.72;34.00;;;6.70;78.20;;;;;;4982031;28;20035;-81
2022/03/02 03:47:00;;;;;;;51.40;36.15;;;6.80;78.20;;;;;;4941737;28;20059;-81
2022/03/02 03:49:25;;;;;;;46.60;34.60;;;6.80;78.20;;;;;;4965669;28;20046;-81
2022/03/02 03:51:51;;;;;;;50.95;35.70;;;6.70;78.10;;;;;;4962698;28;20031;-80
2022/03/02 03:54:17;;;;;;;51.10;35.30;;;6.70;77.80;;;;;;4958327;28;20039;-81
2022/03/02 03:56:42;;;;;;;50.50;35.88;;;6.70;77.80;;;;;;4960001;28;20043;-81
2022/03/02 03:59:08;;;;;;;49.80;35.72;;;6.70;77.90;;;;;;4978577;28;20030;-81
2022/03/02 04:01:34;;;;;;;51.90;37.22;;;6.70;78.10;;;;;;4969342;28;20218;-80
2022/03/02 04:03:59;;;;;;;49.85;36.30;;;6.70;78.20;;;;;;4965698;28;20065;-80
2022/03/02 04:06:25;;;;;;;49.80;36.80;;;6.70;78.10;;;;;;4965617;28;20550;-80
2022/03/02 04:08:51;;;;;;;49.17;36.63;;;6.70;78.20;;;;;;4963198;28;20076;-81
2022/03/02 04:11:16;;;;;;;50.40;35.92;;;6.70;78.30;;;;;;4964076;28;20759;-82
2022/03/02 04:13:42;;;;;;;44.60;34.33;;;6.70;78.40;;;;;;4970178;28;20030;-80
2022/03/02 04:16:08;;;;;;;44.33;33.97;;;6.70;78.50;;;;;;4972338;28;20047;-81
2022/03/02 04:18:33;;;;;;;50.50;36.67;;;6.70;78.60;;;;;;4967996;28;20043;-80
2022/03/02 04:20:59;;;;;;;47.08;35.22;;;6.70;78.60;;;;;;4985484;28;20045;-80
2022/03/02 04:23:25;;;;;;;48.17;35.80;;;6.70;78.90;;;;;;4976253;28;20038;-81
2022/03/02 04:25:51;;;;;;;47.00;35.78;;;6.80;78.80;;;;;;4994471;28;20071;-80
2022/03/02 04:28:17;;;;;;;49.45;36.28;;;6.80;78.50;;;;;;4968695;28;20049;-81
2022/03/02 04:30:43;;;;;;;48.90;35.30;;;6.70;78.40;;;;;;4973930;28;20470;-81
2022/03/02 04:33:09;;;;;;;45.22;36.08;;;6.70;78.20;;;;;;4966157;28;20055;-80
2022/03/02 04:35:35;;;;;;;49.67;34.90;;;6.70;78.30;;;;;;4958588;28;20057;-81
2022/03/02 04:38:01;;;;;;;52.50;37.08;;;6.70;78.40;;;;;;4970930;28;20514;-80
2022/03/02 04:40:27;;;;;;;53.40;36.88;;;6.70;78.30;;;;;;4965951;28;20049;-80
2022/03/02 04:42:54;;;;;;;48.85;37.88;;;6.60;78.20;;;;;;4975880;28;20026;-82
2022/03/02 04:45:21;;;;;;;48.28;36.25;;;6.60;78.30;;;;;;4956385;28;20035;-80
2022/03/02 04:47:47;;;;;;;49.30;37.08;;;6.50;78.50;;;;;;4982284;28;20069;-80
2022/03/02 04:50:13;;;;;;;47.70;36.08;;;6.50;78.80;;;;;;4964226;28;20157;-80
2022/03/02 04:52:39;;;;;;;49.88;37.30;;;6.50;79.10;;;;;;4963040;28;20045;-80
2022/03/02 04:55:05;;;;;;;47.95;36.85;;;6.50;79.40;;;;;;4966677;28;20042;-81
2022/03/02 04:57:31;;;;;;;52.63;37.15;;;6.60;79.60;;;;;;4958480;28;20109;-80
2022/03/02 04:59:57;;;;;;;47.33;36.15;;;6.60;79.60;;;;;;4967265;28;20042;-80
2022/03/02 05:02:23;;;;;;;50.72;37.28;;;6.60;79.70;;;;;;4965830;28;20041;-81
2022/03/02 05:04:49;;;;;;;54.88;38.33;;;6.50;79.60;;;;;;4956109;28;20110;-80
2022/03/02 05:07:15;;;;;;;52.80;36.85;;;6.50;79.70;;;;;;4945722;28;20375;-80
2022/03/02 05:09:42;;;;;;;52.42;38.90;;;6.50;79.70;;;;;;4962074;28;20035;-80
2022/03/02 05:12:08;;;;;;;49.80;36.30;;;6.50;79.70;;;;;;4968660;28;20054;-80
2022/03/02 05:14:34;;;;;;;49.17;35.20;;;6.60;79.70;;;;;;4969483;28;20023;-81
2022/03/02 05:16:59;;;;;;;51.38;36.95;;;6.50;79.50;;;;;;4972758;28;20453;-80
2022/03/02 05:19:25;;;;;;;50.67;37.00;;;6.50;79.50;;;;;;4965240;28;20035;-80
2022/03/02 05:21:51;;;;;;;48.35;36.65;;;6.50;79.50;;;;;;4963572;28;20493;-80
2022/03/02 05:24:17;;;;;;;50.67;36.03;;;6.50;79.50;;;;;;4970346;28;20030;-80
2022/03/02 05:26:42;;;;;;;49.67;37.80;;;6.40;79.10;;;;;;4971466;28;20030;-80
2022/03/02 05:29:08;;;;;;;52.10;38.50;;;6.40;79.00;;;;;;4966480;28;20374;-80
2022/03/02 05:31:34;;;;;;;51.42;36.97;;;6.30;79.10;;;;;;4964970;28;20630;-80
2022/03/02 05:34:00;;;;;;;49.75;37.53;;;6.40;79.10;;;;;;4970955;28;20121;-80
2022/03/02 05:36:26;;;;;;;53.65;39.65;;;6.40;79.20;;;;;;4969499;28;20038;-81
2022/03/02 05:38:53;;;;;;;54.92;38.78;;;6.30;79.40;;;;;;4963366;28;20081;-81
2022/03/02 05:41:19;;;;;;;48.90;37.10;;;6.30;79.30;;;;;;4948719;28;20100;-81
2022/03/02 05:43:45;;;;;;;54.55;39.03;;;6.20;79.70;;;;;;4961577;28;20097;-80
2022/03/02 05:46:11;;;;;;;52.50;37.95;;;6.20;79.70;;;;;;4966177;28;20889;-81
2022/03/02 05:48:36;;;;;;;50.65;38.30;;;6.20;79.80;;;;;;4964924;28;20824;-80
2022/03/02 05:51:02;;;;;;;54.33;39.03;;;6.20;79.90;;;;;;4976605;28;20117;-80
2022/03/02 05:53:28;;;;;;;55.75;38.22;;;6.20;79.90;;;;;;4946285;28;20046;-80
2022/03/02 05:55:54;;;;;;;49.35;39.15;;;6.20;80.00;;;;;;4965369;28;20077;-80
2022/03/02 05:58:19;;;;;;;54.50;40.00;;;6.20;80.10;;;;;;4964825;28;20049;-80
2022/03/02 06:00:45;;;;;;;54.47;38.38;;;6.20;80.30;;;;;;4967156;28;20398;-79
2022/03/02 06:03:10;;;;;;;57.28;41.65;;;6.20;80.30;;;;;;4948854;28;20755;-80
2022/03/02 06:05:36;;;;;;;59.85;41.03;;;6.10;80.40;;;;;;4965968;28;20046;-80
2022/03/02 06:08:02;;;;;;;55.60;40.40;;;6.10;80.50;;;;;;4963120;28;20037;-79
2022/03/02 06:10:28;;;;;;;50.72;39.42;;;6.10;80.40;;;;;;4963353;28;20066;-79
2022/03/02 06:12:54;;;;;;;56.30;39.85;;;6.10;80.30;;;;;;4960715;28;20973;-80
2022/03/02 06:15:20;;;;;;;55.42;39.88;;;6.10;80.10;;;;;;4972181;28;20027;-81
2022/03/02 06:17:46;;;;;;;54.97;39.78;;;6.00;80.30;;;;;;4966357;28;20034;-79
2022/03/02 06:20:12;;;;;;;56.53;40.90;;;6.00;80.60;;;;;;4962972;28;20023;-80
2022/03/02 06:22:40;;;;;;;58.88;39.55;;;5.90;80.90;;;;;;4963682;28;20046;-80
2022/03/02 06:25:07;;;;;;;57.10;39.63;;;5.90;81.00;;;;;;4963392;28;20085;-80
2022/03/02 06:27:34;;;;;;;57.40;41.45;;;5.80;81.10;;;;;;4963896;28;20146;-80
2022/03/02 06:29:59;;;;;;;56.83;41.17;;;5.80;81.30;;;;;;4980804;28;20038;-80
2022/03/02 06:32:25;;;;;;;54.60;39.33;;;5.90;81.40;;;;;;4972255;28;20145;-80
2022/03/02 06:34:50;;;;;;;56.30;38.95;;;5.80;81.20;;;;;;4973183;28;20701;-80
2022/03/02 06:37:17;;;;;;;55.67;40.38;;;5.80;81.40;;;;;;4963036;28;20065;-79
2022/03/02 06:39:42;;;;;;;51.22;39.90;;;5.80;81.10;;;;;;4966557;28;20037;-80
2022/03/02 06:42:22;;;;;;;51.15;38.97;;;5.80;81.10;;;;;;4961340;28;20047;-79
2022/03/02 06:44:59;;;;;;;53.55;39.90;;;5.80;81.10;;;;;;4946390;28;20075;-80
2022/03/02 06:47:29;;;;;;;57.30;40.75;;;5.80;80.70;;;;;;4967695;28;20649;-79
2022/03/02 06:50:13;;;;;;;54.47;39.88;;;5.80;80.50;;;;;;4980312;28;20093;-80
2022/03/02 06:52:41;;;;;;;55.80;40.05;;;5.80;80.60;;;;;;4965202;28;20109;-80
2022/03/02 06:55:16;;;;;;;53.20;40.53;;;5.90;80.90;;;;;;4957002;28;20174;-80
2022/03/02 06:57:46;;;;;;;59.67;42.80;;;5.90;80.70;;;;;;4943971;28;20141;-80
2022/03/02 07:00:16;;;;;;;53.83;42.80;;;6.00;80.40;;;;;;4962209;28;20065;-81
2022/03/02 07:03:02;;;;;;;56.38;40.92;;;5.90;80.10;;;;;;4972355;28;20123;-79
2022/03/02 07:05:28;;;;;;;58.05;42.45;;;6.00;80.10;;;;;;4968314;28;20038;-80
2022/03/02 07:07:54;;;;;;;51.92;39.60;;;6.00;80.00;;;;;;4961003;28;20034;-80
2022/03/02 07:10:20;;;;;;;52.92;40.45;;;5.80;80.10;;;;;;4971220;28;20039;-80
2022/03/02 07:12:45;;;;;;;53.05;38.20;;;5.80;80.40;;;;;;4961992;28;20080;-80
2022/03/02 07:15:12;;;;;;;51.47;38.60;;;5.80;80.20;;;;;;4970346;28;20090;-80
2022/03/02 07:17:39;;;;;;;55.22;40.47;;;5.70;80.50;;;;;;4965713;28;20050;-79
2022/03/02 07:20:07;;;;;;;62.53;39.63;;;5.70;80.40;;;;;;4947448;28;20081;-80
2022/03/02 07:22:47;;;;;;;61.42;40.88;;;5.60;80.30;;;;;;4960644;28;20038;-81
2022/03/02 07:25:20;;;;;;;50.90;37.80;;;5.70;80.70;;;;;;4940735;28;20045;-80
2022/03/02 07:27:46;;;;;;;48.10;36.22;;;5.80;80.30;;;;;;4961680;28;20034;-81
2022/03/02 07:30:12;;;;;;;49.67;37.40;;;6.00;80.30;;;;;;4966039;28;20097;-79
2022/03/02 07:32:43;;;;;;;53.28;37.28;;;6.10;80.30;;;;;;4970342;28;20046;-80
2022/03/02 07:35:09;;;;;;;51.38;36.92;;;6.30;80.40;;;;;;4965955;28;20038;-80
2022/03/02 07:37:36;;;;;;;49.30;35.92;;;6.40;79.80;;;;;;4975436;28;20038;-79
2022/03/02 07:40:03;;;;;;;49.35;36.70;;;6.40;79.30;;;;;;4966447;28;20046;-80
2022/03/02 07:42:32;;;;;;;51.97;38.22;;;6.50;78.90;;;;;;4967561;28;20602;-80
2022/03/02 07:44:58;;;;;;;50.10;37.33;;;6.50;78.60;;;;;;4970764;28;20299;-74
2022/03/02 07:47:24;;;;;;;65.30;46.53;;;6.60;78.90;;;;;;4952817;28;20042;-78
2022/03/02 07:49:50;;;;;;;61.97;47.65;;;6.60;78.70;;;;;;4963712;28;20070;-74
2022/03/02 07:52:18;;;;;;;68.47;52.67;;;6.80;78.90;;;;;;4952290;28;20431;-79
2022/03/02 07:54:47;;;;;;;71.18;50.88;;;7.00;78.60;;;;;;4955857;28;20570;-77
2022/03/02 07:57:14;;;;;;;56.22;41.85;;;7.10;78.40;;;;;;4951919;28;20034;-75
2022/03/02 07:59:42;;;;;;;51.78;38.65;;;7.20;78.00;;;;;;4961039;28;20031;-74
2022/03/02 08:02:10;;;;;;;50.33;36.65;;;7.40;77.50;;;;;;4961273;28;20191;-74
2022/03/02 08:04:37;;;;;;;44.75;32.17;;;7.50;77.30;;;;;;4961623;28;20394;-81
2022/03/02 08:07:03;;;;;;;46.28;34.97;;;7.50;76.40;;;;;;4957369;28;20066;-75
2022/03/02 08:09:31;;;;;;;49.58;34.42;;;7.70;76.10;;;;;;4957092;28;20034;-76
2022/03/02 08:11:59;;;;;;;45.85;34.17;;;7.70;75.30;;;;;;4969363;28;20067;-84
2022/03/02 08:14:25;;;;;;;41.95;31.92;;;7.80;74.70;;;;;;4965192;28;20026;-79
2022/03/02 08:16:52;;;;;;;44.95;33.60;;;7.80;73.70;;;;;;4972224;28;20038;-78
2022/03/02 08:19:19;;;;;;;49.03;35.53;;;7.80;73.20;;;;;;4979291;28;20095;-80
2022/03/02 08:21:51;;;;;;;50.00;35.28;;;7.80;73.80;;;;;;4978715;28;20030;-76
2022/03/02 08:24:17;;;;;;;42.58;32.45;;;7.90;73.60;;;;;;4960767;28;20063;-77
2022/03/02 08:26:47;;;;;;;44.47;33.22;;;8.00;73.60;;;;;;4957783;28;20027;-78
2022/03/02 08:29:13;;;;;;;43.72;33.47;;;8.10;73.80;;;;;;4959923;28;20031;-75
2022/03/02 08:31:42;;;;;;;42.25;33.03;;;8.10;73.30;;;;;;4961678;28;20042;-76
2022/03/02 08:34:09;;;;;;;43.20;32.60;;;8.20;73.00;;;;;;4957427;28;20046;-75
2022/03/02 08:36:36;;;;;;;43.03;32.97;;;8.30;71.90;;;;;;4942357;28;20449;-75
2022/03/02 08:39:07;;;;;;;43.05;31.70;;;8.30;71.30;;;;;;4942963;28;20046;-76
2022/03/02 08:41:34;;;;;;;48.05;34.58;;;8.30;72.50;;;;;;4969971;28;20454;-78
2022/03/02 08:44:00;;;;;;;42.08;32.78;;;8.50;71.90;;;;;;4947448;28;20117;-79
2022/03/02 08:46:26;;;;;;;41.97;31.35;;;8.60;72.10;;;;;;4966731;28;20039;-76
2022/03/02 08:48:53;;;;;;;45.17;32.55;;;8.70;71.70;;;;;;4959031;28;20027;-76
2022/03/02 08:51:23;;;;;;;41.30;32.55;;;8.80;70.50;;;;;;4967993;28;20489;-78
2022/03/02 08:53:50;;;;;;;47.42;32.83;;;8.70;70.60;;;;;;4951158;28;20030;-74
2022/03/02 08:56:17;;;;;;;39.00;30.70;;;8.80;70.10;;;;;;4959649;28;20086;-80
2022/03/02 08:58:43;;;;;;;40.85;30.98;;;8.80;69.50;;;;;;4969775;28;20092;-77
2022/03/02 09:01:12;;;;;;;41.13;30.58;;;8.90;69.80;;;;;;4974999;28;20043;-76
2022/03/02 09:03:45;;;;;;;40.95;31.75;;;9.00;69.90;;;;;;4970155;28;20481;-74
2022/03/02 09:06:11;;;;;;;38.47;30.95;;;9.10;68.80;;;;;;4961210;28;20042;-79
2022/03/02 09:08:38;;;;;;;40.83;31.08;;;9.00;68.40;;;;;;4968081;28;20064;-76
2022/03/02 09:11:04;;;;;;;44.38;31.42;;;9.10;69.00;;;;;;4969428;28;20507;-73
2022/03/02 09:13:30;;;;;;;41.13;31.25;;;9.10;67.70;;;;;;4961628;28;20049;-75
2022/03/02 09:15:57;;;;;;;38.50;29.80;;;8.90;68.20;;;;;;4968145;28;20332;-77
2022/03/02 09:18:23;;;;;;;41.65;30.15;;;9.00;68.00;;;;;;4975917;28;20439;-79
2022/03/02 09:20:58;;;;;;;38.35;29.15;;;9.10;67.90;;;;;;4955782;28;20142;-76
2022/03/02 09:23:31;;;;;;;40.60;29.73;;;9.30;68.10;;;;;;4989674;28;20117;-76
2022/03/02 09:26:06;;;;;;;37.72;29.25;;;9.30;66.30;;;;;;4965280;28;20031;-76
2022/03/02 09:28:37;;;;;;;39.25;29.77;;;9.30;66.70;;;;;;4965471;28;20801;-76
2022/03/02 09:31:06;;;;;;;40.30;29.77;;;9.40;66.10;;;;;;4951599;28;20045;-75
2022/03/02 09:33:34;;;;;;;42.42;30.90;;;9.40;65.10;;;;;;4948693;28;20058;-76
2022/03/02 09:36:04;;;;;;;41.20;28.80;;;9.40;65.40;;;;;;4942372;28;20067;-74
2022/03/02 09:38:32;;;;;;;37.08;28.55;;;9.20;65.40;;;;;;4962743;28;20186;-74
2022/03/02 09:41:08;;;;;;;41.67;29.90;;;9.30;65.80;;;;;;4946278;28;20510;-77
2022/03/02 09:43:35;;;;;;;40.17;29.38;;;9.50;65.40;;;;;;4947356;28;20035;-75
2022/03/02 09:46:06;;;;;;;39.72;27.95;;;9.40;64.00;;;;;;4978188;28;20054;-76
2022/03/02 09:48:35;;;;;;;39.92;28.70;;;9.40;63.60;;;;;;4963281;28;20058;-75
2022/03/02 09:51:05;;;;;;;41.45;28.83;;;9.20;63.70;;;;;;4942840;28;20139;-80
2022/03/02 09:53:32;;;;;;;39.60;28.70;;;9.30;65.30;;;;;;4939147;28;20034;-78
2022/03/02 09:56:02;;;;;;;38.15;28.70;;;9.50;64.40;;;;;;4943308;28;20062;-77
2022/03/02 09:58:28;;;;;;;39.38;28.60;;;9.60;63.00;;;;;;4943661;28;20073;-76
2022/03/02 10:00:56;;;;;;;36.00;28.65;;;9.70;63.90;;;;;;4947192;28;20340;-79
2022/03/02 10:03:34;;;;;;;38.03;27.30;;;9.90;62.50;;;;;;4939156;28;20042;-78
2022/03/02 10:06:05;;;;;;;36.03;28.05;;;10.00;61.70;;;;;;4937027;28;20854;-75
2022/03/02 10:08:35;;;;;;;35.78;26.45;;;10.10;61.20;;;;;;4944747;28;20545;-76
2022/03/02 10:11:06;;;;;;;37.65;27.00;;;10.20;61.90;;;;;;4941169;28;20046;-76
2022/03/02 10:13:33;;;;;;;36.35;27.23;;;10.30;60.70;;;;;;4932881;28;20018;-79
2022/03/02 10:16:04;;;;;;;36.08;27.65;;;9.90;58.90;;;;;;4959666;28;20085;-74
2022/03/02 10:18:34;;;;;;;37.88;27.48;;;9.90;60.40;;;;;;4960087;28;20507;-76
2022/03/02 10:21:03;;;;;;;35.60;27.70;;;10.00;60.70;;;;;;4961005;28;20979;-78
2022/03/02 10:23:37;;;;;;;37.35;29.00;;;10.10;60.50;;;;;;4961227;28;20039;-73
2022/03/02 10:26:24;;;;;;;39.95;28.17;;;10.30;61.30;;;;;;4949818;28;20030;-76
2022/03/02 10:29:07;;;;;;;36.85;26.98;;;10.10;60.20;;;;;;4948940;28;20035;-77
2022/03/02 10:31:42;;;;;;;36.22;26.40;;;10.40;61.10;;;;;;4954422;28;20118;-75
2022/03/02 10:34:14;;;;;;;;;;;10.70;59.40;;;;;;4960554;28;20038;-77
2022/03/02 10:36:45;;;;;;;36.30;26.23;;;10.90;57.70;;;;;;4949146;28;20337;-77
2022/03/02 10:39:33;;;;;;;33.70;25.15;;;11.10;57.10;;;;;;4956305;28;20066;-75
2022/03/02 10:42:05;;;;;;;38.75;26.33;;;11.40;56.20;;;;;;4969542;28;20392;-76
2022/03/02 10:44:47;;;;;;;34.58;26.27;;;11.50;55.50;;;;;;4969977;28;20125;-74
2022/03/02 10:47:20;;;;;;;33.65;24.13;;;11.30;53.10;;;;;;4968965;28;20122;-74
2022/03/02 10:49:46;;;;;;;35.20;25.67;;;11.30;54.20;;;;;;4978461;28;20038;-75
2022/03/02 10:52:14;;;;;;;34.60;26.15;;;11.60;54.30;;;;;;4965376;28;20755;-75
2022/03/02 10:54:41;;;;;;;32.13;25.02;;;11.80;53.60;;;;;;4958806;28;20022;-75
2022/03/02 10:57:12;;;;;;;33.90;24.30;;;11.90;52.30;;;;;;4958956;28;20042;-75
2022/03/02 10:59:42;;;;;;;30.55;23.52;;;11.80;51.50;;;;;;4961575;28;20042;-75
2022/03/02 11:02:10;;;;;;;31.92;23.30;;;11.70;51.70;;;;;;4964688;28;20047;-74
2022/03/02 11:04:38;;;;;;;29.20;23.48;;;11.90;50.60;;;;;;4954600;28;20691;-74
2022/03/02 11:07:04;;;;;;;31.23;23.17;;;12.10;52.10;;;;;;4960396;28;20042;-74
2022/03/02 11:09:34;;;;;;;29.83;23.08;;;12.30;50.60;;;;;;4963399;28;20395;-75
2022/03/02 11:12:00;;;;;;;29.48;22.98;;;12.60;49.50;;;;;;4965431;28;20053;-76
2022/03/02 11:14:26;;;;;;;29.10;22.48;;;12.60;50.50;;;;;;4965732;28;20050;-75
2022/03/02 11:17:15;;;;;;;30.88;22.88;;;12.60;49.30;;;;;;4960079;28;20428;-75
2022/03/02 11:19:45;;;;;;;31.95;22.88;;;12.70;47.90;;;;;;4968484;28;20106;-77
2022/03/02 11:22:20;;;;;;;30.95;22.40;;;12.70;49.00;;;;;;4958740;28;20034;-79
2022/03/02 11:24:46;;;;;;;30.20;23.00;;;12.80;47.70;;;;;;4960668;28;20179;-76
2022/03/02 11:27:45;;;;;;;28.17;21.77;;;13.00;48.10;;;;;;4953555;28;20058;-76
2022/03/02 11:30:13;;;;;;;30.30;22.05;;;13.10;46.90;;;;;;4951960;28;20043;-79
2022/03/02 11:32:46;;;;;;;30.48;21.63;;;12.70;45.90;;;;;;4949556;28;20092;-74
2022/03/02 11:35:16;;;;;;;28.98;21.00;;;12.70;47.30;;;;;;4948660;28;20049;-77
2022/03/02 11:37:42;;;;;;;26.98;20.65;;;12.90;46.30;;;;;;4954652;28;20411;-77
2022/03/02 11:40:11;;;;;;;28.75;20.38;;;12.90;45.40;;;;;;4955131;28;20035;-78
2022/03/02 11:42:38;;;;;;;28.40;20.38;;;13.00;45.70;;;;;;4955523;28;20542;-78
2022/03/02 11:45:06;;;;;;;27.38;20.40;;;13.00;45.20;;;;;;4951337;28;20105;-77
2022/03/02 11:47:38;;;;;;;27.60;20.75;;;13.00;44.80;;;;;;4949201;28;20081;-76
2022/03/02 11:50:07;;;;;;;29.25;19.80;;;13.00;44.10;;;;;;4948135;28;20357;-76
2022/03/02 11:52:35;;;;;;;26.70;20.88;;;13.00;44.60;;;;;;4949683;28;20055;-77
2022/03/02 11:55:05;;;;;;;27.20;19.75;;;12.90;45.00;;;;;;4950405;28;20052;-75
2022/03/02 11:57:39;;;;;;;29.98;20.92;;;13.00;44.90;;;;;;4950087;28;20043;-75
2022/03/02 12:00:14;;;;;;;26.83;20.08;;;13.20;44.40;;;;;;4948517;28;20050;-75
2022/03/02 12:02:46;;;;;;;26.88;19.52;;;13.40;44.10;;;;;;4951634;28;20038;-77
2022/03/02 12:05:12;;;;;;;28.00;19.80;;;13.40;43.50;;;;;;4948089;28;20035;-78
2022/03/02 12:07:44;;;;;;;25.42;19.48;;;13.30;42.20;;;;;;4943722;28;20058;-77
2022/03/02 12:10:18;;;;;;;26.02;19.70;;;13.40;44.20;;;;;;4947447;28;20936;-77
2022/03/02 12:12:44;;;;;;;26.35;19.33;;;13.40;42.50;;;;;;4962449;28;20055;-75
2022/03/02 12:15:10;;;;;;;25.77;20.33;;;13.10;42.70;;;;;;4951943;28;20078;-75
2022/03/02 12:17:37;;;;;;;26.85;20.02;;;13.10;43.20;;;;;;4950700;28;20051;-75
2022/03/02 12:20:08;;;;;;;27.33;19.30;;;13.00;42.80;;;;;;4950961;28;20031;-75
2022/03/02 12:22:38;;;;;;;23.20;18.48;;;13.10;43.70;;;;;;4955786;28;20046;-74
2022/03/02 12:25:05;;;;;;;28.42;20.52;;;13.10;42.80;;;;;;4948563;28;20570;-77
2022/03/02 12:27:31;;;;;;;27.60;20.05;;;12.90;43.80;;;;;;4956673;28;20050;-75
2022/03/02 12:30:04;;;;;;;29.23;20.50;;;13.00;44.10;;;;;;4953768;28;20471;-75
2022/03/02 12:32:33;;;;;;;28.70;21.20;;;12.80;43.80;;;;;;4954663;28;20130;-75
2022/03/02 12:35:02;;;;;;;29.45;20.80;;;12.80;44.40;;;;;;4955100;28;20094;-74
2022/03/02 12:37:29;;;;;;;27.10;20.85;;;12.30;44.40;;;;;;4958972;28;20022;-76